PWSweather.com
Personal Weather Stations
Station Observations
BC052CD
On, Kemptville, ON K0G 1J0

OnKemptville, ON K0G 1J0

Lat: 45.0173179, Lon: -75.6329355

Elevation: 295

Station Type: National Geographic 265NC

http://kerrentweather.ca

High Low Average
Temperature 29.3°F-1.5°C 9.3°F-12.6°C 22.8°F-5.1°C
Dew Point 13.7°F-10.2°C -5.5°F-20.8°C 5.7°F-14.6°C
Winds 10.3 mph 16.6 kmh Calm Calm 4.0 mph N6.4 kmh N
Wind Gusts 21.8 mph35.1 kmh 2.0 mph3.2 kmh 13.0 mph20.9 kmh
Humidity 63% 37% 48%
Pressure 30.17 in1021.7 mb 29.70 in1005.8 mb -
Precipitation 0.00 in0.0 mm - -
Hour Temp Dew Point Humidity Winds Wind Gusts Pressure Precip Precip Rate Daily Precip Total
12:00 AM 27.7°F-2.4°C 11.5°F-11.4°C 50% 6.7 mph N10.8 kmh N 16.2 mph26.1 kmh 29.70 in1005.8 mb 0.00 in0.0 mm 0.00 in0.0 mm 0.00 in0.0 mm
12:15 AM 27.7°F-2.4°C 12.0°F-11.1°C 51% 9.5 mph N15.3 kmh N 16.2 mph26.1 kmh 29.71 in1006.1 mb 0.00 in0.0 mm 0.00 in0.0 mm 0.00 in0.0 mm
12:30 AM 27.7°F-2.4°C 12.0°F-11.1°C 51% 5.6 mph N9.0 kmh N 18.2 mph29.3 kmh 29.71 in1006.1 mb 0.00 in0.0 mm 0.00 in0.0 mm 0.00 in0.0 mm
12:45 AM 27.7°F-2.4°C 12.0°F-11.1°C 51% 8.7 mph N14.0 kmh N 15.1 mph24.3 kmh 29.71 in1006.1 mb 0.00 in0.0 mm 0.00 in0.0 mm 0.00 in0.0 mm
01:00 AM 27.5°F-2.5°C 11.8°F-11.2°C 51% 9.5 mph N15.3 kmh N 18.2 mph29.3 kmh 29.72 in1006.4 mb 0.00 in0.0 mm 0.00 in0.0 mm 0.00 in0.0 mm
01:15 AM 27.5°F-2.5°C 12.7°F-10.7°C 53% 4.8 mph N7.7 kmh N 15.1 mph24.3 kmh 29.72 in1006.4 mb 0.00 in0.0 mm 0.00 in0.0 mm 0.00 in0.0 mm
01:30 AM 27.3°F-2.6°C 12.5°F-10.8°C 53% 9.5 mph N15.3 kmh N 18.2 mph29.3 kmh 29.73 in1006.8 mb 0.00 in0.0 mm 0.00 in0.0 mm 0.00 in0.0 mm
01:45 AM 27.1°F-2.7°C 12.7°F-10.7°C 54% 5.6 mph N9.0 kmh N 15.1 mph24.3 kmh 29.73 in1006.8 mb 0.00 in0.0 mm 0.00 in0.0 mm 0.00 in0.0 mm
02:00 AM 27.0°F-2.8°C 12.6°F-10.8°C 54% 6.7 mph N10.8 kmh N 16.2 mph26.1 kmh 29.74 in1007.1 mb 0.00 in0.0 mm 0.00 in0.0 mm 0.00 in0.0 mm
02:15 AM 27.0°F-2.8°C 13.0°F-10.6°C 55% 6.7 mph N10.8 kmh N 14.3 mph23.0 kmh 29.74 in1007.1 mb 0.00 in0.0 mm 0.00 in0.0 mm 0.00 in0.0 mm
02:30 AM 27.0°F-2.8°C 13.4°F-10.3°C 56% 9.5 mph N15.3 kmh N 14.3 mph23.0 kmh 29.75 in1007.5 mb 0.00 in0.0 mm 0.00 in0.0 mm 0.00 in0.0 mm
02:45 AM 26.8°F-2.9°C 13.2°F-10.4°C 56% 7.5 mph N12.1 kmh N 15.1 mph24.3 kmh 29.74 in1007.1 mb 0.00 in0.0 mm 0.00 in0.0 mm 0.00 in0.0 mm
03:00 AM 26.8°F-2.9°C 13.2°F-10.4°C 56% 7.5 mph N12.1 kmh N 14.3 mph23.0 kmh 29.75 in1007.5 mb 0.00 in0.0 mm 0.00 in0.0 mm 0.00 in0.0 mm
03:15 AM 26.8°F-2.9°C 13.6°F-10.2°C 57% 6.7 mph N10.8 kmh N 14.3 mph23.0 kmh 29.76 in1007.8 mb 0.00 in0.0 mm 0.00 in0.0 mm 0.00 in0.0 mm
03:30 AM 26.8°F-2.9°C 13.6°F-10.2°C 57% 6.7 mph N10.8 kmh N 15.1 mph24.3 kmh 29.76 in1007.8 mb 0.00 in0.0 mm 0.00 in0.0 mm 0.00 in0.0 mm
03:45 AM 26.8°F-2.9°C 13.6°F-10.2°C 57% 5.6 mph N9.0 kmh N 17.1 mph27.5 kmh 29.77 in1008.1 mb 0.00 in0.0 mm 0.00 in0.0 mm 0.00 in0.0 mm
04:00 AM 26.6°F-3.0°C 13.5°F-10.3°C 57% 4.8 mph N7.7 kmh N 15.1 mph24.3 kmh 29.77 in1008.1 mb 0.00 in0.0 mm 0.00 in0.0 mm 0.00 in0.0 mm
04:15 AM 26.4°F-3.1°C 13.7°F-10.2°C 58% 5.6 mph N9.0 kmh N 15.1 mph24.3 kmh 29.77 in1008.1 mb 0.00 in0.0 mm 0.00 in0.0 mm 0.00 in0.0 mm
04:30 AM 26.1°F-3.3°C 13.3°F-10.4°C 58% 4.8 mph N7.7 kmh N 15.1 mph24.3 kmh 29.78 in1008.5 mb 0.00 in0.0 mm 0.00 in0.0 mm 0.00 in0.0 mm
04:45 AM 25.7°F-3.5°C 13.0°F-10.6°C 58% 4.8 mph N7.7 kmh N 12.3 mph19.8 kmh 29.79 in1008.8 mb 0.00 in0.0 mm 0.00 in0.0 mm 0.00 in0.0 mm
05:00 AM 25.2°F-3.8°C 12.9°F-10.6°C 59% 3.9 mph N6.3 kmh N 10.3 mph16.6 kmh 29.80 in1009.1 mb 0.00 in0.0 mm 0.00 in0.0 mm 0.00 in0.0 mm
05:15 AM 24.8°F-4.0°C 12.6°F-10.8°C 59% 3.9 mph N6.3 kmh N 14.3 mph23.0 kmh 29.80 in1009.1 mb 0.00 in0.0 mm 0.00 in0.0 mm 0.00 in0.0 mm
05:30 AM 24.4°F-4.2°C 12.6°F-10.8°C 60% 2.0 mph N3.2 kmh N 8.7 mph14.0 kmh 29.81 in1009.5 mb 0.00 in0.0 mm 0.00 in0.0 mm 0.00 in0.0 mm
05:45 AM 24.4°F-4.2°C 13.3°F-10.4°C 62% 2.0 mph N3.2 kmh N 9.5 mph15.3 kmh 29.82 in1009.8 mb 0.00 in0.0 mm 0.00 in0.0 mm 0.00 in0.0 mm
06:00 AM 24.4°F-4.2°C 13.3°F-10.4°C 62% 3.9 mph N6.3 kmh N 10.3 mph16.6 kmh 29.82 in1009.8 mb 0.00 in0.0 mm 0.00 in0.0 mm 0.00 in0.0 mm
06:15 AM 24.4°F-4.2°C 13.7°F-10.2°C 63% 4.8 mph N7.7 kmh N 10.3 mph16.6 kmh 29.83 in1010.2 mb 0.00 in0.0 mm 0.00 in0.0 mm 0.00 in0.0 mm
06:30 AM 23.9°F-4.5°C 11.7°F-11.3°C 59% 6.7 mph N10.8 kmh N 17.1 mph27.5 kmh 29.84 in1010.5 mb 0.00 in0.0 mm 0.00 in0.0 mm 0.00 in0.0 mm
06:45 AM 23.0°F-5.0°C 10.1°F-12.2°C 57% 3.9 mph N6.3 kmh N 14.3 mph23.0 kmh 29.86 in1011.2 mb 0.00 in0.0 mm 0.00 in0.0 mm 0.00 in0.0 mm
07:00 AM 21.9°F-5.6°C 8.7°F-12.9°C 56% 2.8 mph N4.5 kmh N 11.5 mph18.5 kmh 29.86 in1011.2 mb 0.00 in0.0 mm 0.00 in0.0 mm 0.00 in0.0 mm
07:15 AM 20.8°F-6.2°C 7.3°F-13.7°C 55% 4.8 mph N7.7 kmh N 14.3 mph23.0 kmh 29.87 in1011.5 mb 0.00 in0.0 mm 0.00 in0.0 mm 0.00 in0.0 mm
07:30 AM 19.9°F-6.7°C 6.4°F-14.2°C 55% 3.9 mph N6.3 kmh N 10.3 mph16.6 kmh 29.88 in1011.9 mb 0.00 in0.0 mm 0.00 in0.0 mm 0.00 in0.0 mm
07:45 AM 19.6°F-6.9°C 6.1°F-14.4°C 55% 4.8 mph N7.7 kmh N 17.1 mph27.5 kmh 29.89 in1012.2 mb 0.00 in0.0 mm 0.00 in0.0 mm 0.00 in0.0 mm
08:00 AM 19.4°F-7.0°C 5.9°F-14.5°C 55% 5.6 mph N9.0 kmh N 15.1 mph24.3 kmh 29.90 in1012.5 mb 0.00 in0.0 mm 0.00 in0.0 mm 0.00 in0.0 mm
08:15 AM 19.4°F-7.0°C 5.9°F-14.5°C 55% 3.9 mph N6.3 kmh N 19.0 mph30.6 kmh 29.91 in1012.9 mb 0.00 in0.0 mm 0.00 in0.0 mm 0.00 in0.0 mm
08:30 AM 19.6°F-6.9°C 5.7°F-14.6°C 54% 2.8 mph N4.5 kmh N 18.2 mph29.3 kmh 29.92 in1013.2 mb 0.00 in0.0 mm 0.00 in0.0 mm 0.00 in0.0 mm
08:45 AM 20.3°F-6.5°C 6.4°F-14.2°C 54% 5.6 mph N9.0 kmh N 19.9 mph32.0 kmh 29.93 in1013.5 mb 0.00 in0.0 mm 0.00 in0.0 mm 0.00 in0.0 mm
09:00 AM 21.2°F-6.0°C 6.8°F-14.0°C 53% 4.8 mph N7.7 kmh N 18.2 mph29.3 kmh 29.94 in1013.9 mb 0.00 in0.0 mm 0.00 in0.0 mm 0.00 in0.0 mm
09:15 AM 22.1°F-5.5°C 6.4°F-14.2°C 50% 10.3 mph N16.6 kmh N 21.0 mph33.8 kmh 29.94 in1013.9 mb 0.00 in0.0 mm 0.00 in0.0 mm 0.00 in0.0 mm
09:30 AM 22.3°F-5.4°C 5.6°F-14.7°C 48% 7.5 mph N12.1 kmh N 21.0 mph33.8 kmh 29.95 in1014.2 mb 0.00 in0.0 mm 0.00 in0.0 mm 0.00 in0.0 mm
09:45 AM 23.0°F-5.0°C 6.3°F-14.3°C 48% 2.0 mph N3.2 kmh N 14.3 mph23.0 kmh 29.94 in1013.9 mb 0.00 in0.0 mm 0.00 in0.0 mm 0.00 in0.0 mm
10:00 AM 23.5°F-4.7°C 6.3°F-14.3°C 47% 4.8 mph N7.7 kmh N 21.8 mph35.1 kmh 29.95 in1014.2 mb 0.00 in0.0 mm 0.00 in0.0 mm 0.00 in0.0 mm
10:15 AM 23.9°F-4.5°C 6.2°F-14.3°C 46% 5.6 mph N9.0 kmh N 15.1 mph24.3 kmh 29.95 in1014.2 mb 0.00 in0.0 mm 0.00 in0.0 mm 0.00 in0.0 mm
10:30 AM 24.3°F-4.3°C 6.0°F-14.4°C 45% 5.6 mph N9.0 kmh N 16.2 mph26.1 kmh 29.95 in1014.2 mb 0.00 in0.0 mm 0.00 in0.0 mm 0.00 in0.0 mm
10:45 AM 24.8°F-4.0°C 6.5°F-14.2°C 45% 5.6 mph N9.0 kmh N 13.4 mph21.6 kmh 29.96 in1014.6 mb 0.00 in0.0 mm 0.00 in0.0 mm 0.00 in0.0 mm
11:00 AM 26.1°F-3.3°C 7.7°F-13.5°C 45% 3.9 mph N6.3 kmh N 14.3 mph23.0 kmh 29.96 in1014.6 mb 0.00 in0.0 mm 0.00 in0.0 mm 0.00 in0.0 mm
11:15 AM 27.0°F-2.8°C 8.0°F-13.3°C 44% 3.9 mph N6.3 kmh N 15.1 mph24.3 kmh 29.96 in1014.6 mb 0.00 in0.0 mm 0.00 in0.0 mm 0.00 in0.0 mm
11:30 AM 27.7°F-2.4°C 7.6°F-13.6°C 42% 4.8 mph N7.7 kmh N 19.0 mph30.6 kmh 29.97 in1014.9 mb 0.00 in0.0 mm 0.00 in0.0 mm 0.00 in0.0 mm
11:45 AM 26.8°F-2.9°C 6.3°F-14.3°C 41% 4.8 mph N7.7 kmh N 16.2 mph26.1 kmh 29.98 in1015.2 mb 0.00 in0.0 mm 0.00 in0.0 mm 0.00 in0.0 mm
12:00 PM 26.2°F-3.2°C 6.3°F-14.3°C 42% 3.9 mph N6.3 kmh N 16.2 mph26.1 kmh 29.97 in1014.9 mb 0.00 in0.0 mm 0.00 in0.0 mm 0.00 in0.0 mm
12:15 PM 27.3°F-2.6°C 7.3°F-13.7°C 42% 3.9 mph N6.3 kmh N 16.2 mph26.1 kmh 29.97 in1014.9 mb 0.00 in0.0 mm 0.00 in0.0 mm 0.00 in0.0 mm
12:30 PM 27.7°F-2.4°C 7.1°F-13.8°C 41% 4.8 mph N7.7 kmh N 11.5 mph18.5 kmh 29.97 in1014.9 mb 0.00 in0.0 mm 0.00 in0.0 mm 0.00 in0.0 mm
12:45 PM 28.2°F-2.1°C 7.0°F-13.9°C 40% 2.8 mph N4.5 kmh N 14.3 mph23.0 kmh 29.97 in1014.9 mb 0.00 in0.0 mm 0.00 in0.0 mm 0.00 in0.0 mm
01:00 PM 28.8°F-1.8°C 7.5°F-13.6°C 40% 6.7 mph N10.8 kmh N 17.1 mph27.5 kmh 29.97 in1014.9 mb 0.00 in0.0 mm 0.00 in0.0 mm 0.00 in0.0 mm
01:15 PM 28.9°F-1.7°C 6.6°F-14.1°C 38% 4.8 mph N7.7 kmh N 14.3 mph23.0 kmh 29.98 in1015.2 mb 0.00 in0.0 mm 0.00 in0.0 mm 0.00 in0.0 mm
01:30 PM 28.9°F-1.7°C 6.6°F-14.1°C 38% 2.0 mph N3.2 kmh N 16.2 mph26.1 kmh 29.98 in1015.2 mb 0.00 in0.0 mm 0.00 in0.0 mm 0.00 in0.0 mm
01:45 PM 29.3°F-1.5°C 6.9°F-13.9°C 38% 2.0 mph N3.2 kmh N 11.5 mph18.5 kmh 29.99 in1015.6 mb 0.00 in0.0 mm 0.00 in0.0 mm 0.00 in0.0 mm
02:00 PM 28.9°F-1.7°C 6.0°F-14.4°C 37% 2.8 mph N4.5 kmh N 15.1 mph24.3 kmh 29.99 in1015.6 mb 0.00 in0.0 mm 0.00 in0.0 mm 0.00 in0.0 mm
02:15 PM 28.0°F-2.2°C 5.2°F-14.9°C 37% 3.9 mph N6.3 kmh N 12.3 mph19.8 kmh 30.00 in1015.9 mb 0.00 in0.0 mm 0.00 in0.0 mm 0.00 in0.0 mm
02:30 PM 27.5°F-2.5°C 4.7°F-15.2°C 37% 3.9 mph N6.3 kmh N 15.1 mph24.3 kmh 30.01 in1016.3 mb 0.00 in0.0 mm 0.00 in0.0 mm 0.00 in0.0 mm
02:45 PM 26.8°F-2.9°C 4.1°F-15.5°C 37% 3.9 mph N6.3 kmh N 15.1 mph24.3 kmh 30.01 in1016.3 mb 0.00 in0.0 mm 0.00 in0.0 mm 0.00 in0.0 mm
03:00 PM 26.8°F-2.9°C 4.1°F-15.5°C 37% 3.9 mph N6.3 kmh N 11.5 mph18.5 kmh 30.02 in1016.6 mb 0.00 in0.0 mm 0.00 in0.0 mm 0.00 in0.0 mm
03:15 PM 26.8°F-2.9°C 4.1°F-15.5°C 37% 5.6 mph N9.0 kmh N 17.1 mph27.5 kmh 30.03 in1016.9 mb 0.00 in0.0 mm 0.00 in0.0 mm 0.00 in0.0 mm
03:30 PM 26.4°F-3.1°C 3.7°F-15.7°C 37% 4.8 mph N7.7 kmh N 15.1 mph24.3 kmh 30.03 in1016.9 mb 0.00 in0.0 mm 0.00 in0.0 mm 0.00 in0.0 mm
03:45 PM 26.2°F-3.2°C 3.6°F-15.8°C 37% 3.9 mph N6.3 kmh N 15.1 mph24.3 kmh 30.03 in1016.9 mb 0.00 in0.0 mm 0.00 in0.0 mm 0.00 in0.0 mm
04:00 PM 25.9°F-3.4°C 3.2°F-16.0°C 37% 5.6 mph N9.0 kmh N 12.3 mph19.8 kmh 30.04 in1017.3 mb 0.00 in0.0 mm 0.00 in0.0 mm 0.00 in0.0 mm
04:15 PM 25.9°F-3.4°C 3.8°F-15.7°C 38% 2.8 mph N4.5 kmh N 11.5 mph18.5 kmh 30.05 in1017.6 mb 0.00 in0.0 mm 0.00 in0.0 mm 0.00 in0.0 mm
04:30 PM 25.7°F-3.5°C 3.1°F-16.1°C 37% 6.7 mph N10.8 kmh N 13.4 mph21.6 kmh 30.05 in1017.6 mb 0.00 in0.0 mm 0.00 in0.0 mm 0.00 in0.0 mm
04:45 PM 25.3°F-3.7°C 2.8°F-16.2°C 37% 2.0 mph N3.2 kmh N 11.5 mph18.5 kmh 30.06 in1017.9 mb 0.00 in0.0 mm 0.00 in0.0 mm 0.00 in0.0 mm
05:00 PM 24.6°F-4.1°C 2.1°F-16.6°C 37% 2.0 mph N3.2 kmh N 8.7 mph14.0 kmh 30.06 in1017.9 mb 0.00 in0.0 mm 0.00 in0.0 mm 0.00 in0.0 mm
05:15 PM 23.5°F-4.7°C 1.2°F-17.1°C 37% 0.8 mph N1.3 kmh N 12.3 mph19.8 kmh 30.06 in1017.9 mb 0.00 in0.0 mm 0.00 in0.0 mm 0.00 in0.0 mm
05:30 PM 22.6°F-5.2°C 0.9°F-17.3°C 38% 2.0 mph N3.2 kmh N 9.5 mph15.3 kmh 30.07 in1018.3 mb 0.00 in0.0 mm 0.00 in0.0 mm 0.00 in0.0 mm
05:45 PM 21.7°F-5.7°C 0.1°F-17.7°C 38% 2.8 mph N4.5 kmh N 7.5 mph12.1 kmh 30.07 in1018.3 mb 0.00 in0.0 mm 0.00 in0.0 mm 0.00 in0.0 mm
06:00 PM 21.0°F-6.1°C 0.0°F-17.8°C 39% 0.8 mph N1.3 kmh N 7.5 mph12.1 kmh 30.09 in1019.0 mb 0.00 in0.0 mm 0.00 in0.0 mm 0.00 in0.0 mm
06:15 PM 20.3°F-6.5°C -0.1°F-17.8°C 40% 0.8 mph N1.3 kmh N 8.7 mph14.0 kmh 30.10 in1019.3 mb 0.00 in0.0 mm 0.00 in0.0 mm 0.00 in0.0 mm
06:30 PM 19.6°F-6.9°C -0.7°F-18.2°C 40% 2.0 mph N3.2 kmh N 9.5 mph15.3 kmh 30.11 in1019.6 mb 0.00 in0.0 mm 0.00 in0.0 mm 0.00 in0.0 mm
06:45 PM 19.0°F-7.2°C -0.7°F-18.2°C 41% 2.0 mph N3.2 kmh N 7.5 mph12.1 kmh 30.12 in1020.0 mb 0.00 in0.0 mm 0.00 in0.0 mm 0.00 in0.0 mm
07:00 PM 18.5°F-7.5°C -0.7°F-18.2°C 42% 0.8 mph N1.3 kmh N 8.7 mph14.0 kmh 30.12 in1020.0 mb 0.00 in0.0 mm 0.00 in0.0 mm 0.00 in0.0 mm
07:15 PM 17.8°F-7.9°C -1.3°F-18.5°C 42% 2.0 mph N3.2 kmh N 8.7 mph14.0 kmh 30.12 in1020.0 mb 0.00 in0.0 mm 0.00 in0.0 mm 0.00 in0.0 mm
07:30 PM 17.4°F-8.1°C -0.7°F-18.2°C 44% 3.9 mph N6.3 kmh N 10.3 mph16.6 kmh 30.13 in1020.3 mb 0.00 in0.0 mm 0.00 in0.0 mm 0.00 in0.0 mm
07:45 PM 17.1°F-8.3°C -0.5°F-18.1°C 45% 2.8 mph N4.5 kmh N 7.5 mph12.1 kmh 30.12 in1020.0 mb 0.00 in0.0 mm 0.00 in0.0 mm 0.00 in0.0 mm
08:00 PM 16.7°F-8.5°C -0.9°F-18.3°C 45% 2.0 mph N3.2 kmh N 8.7 mph14.0 kmh 30.13 in1020.3 mb 0.00 in0.0 mm 0.00 in0.0 mm 0.00 in0.0 mm
08:15 PM 16.2°F-8.8°C -1.4°F-18.6°C 45% 2.8 mph N4.5 kmh N 6.7 mph10.8 kmh 30.13 in1020.3 mb 0.00 in0.0 mm 0.00 in0.0 mm 0.00 in0.0 mm
08:30 PM 15.8°F-9.0°C -1.2°F-18.4°C 46% 0.8 mph N1.3 kmh N 5.6 mph9.0 kmh 30.14 in1020.7 mb 0.00 in0.0 mm 0.00 in0.0 mm 0.00 in0.0 mm
08:45 PM 15.3°F-9.3°C -1.7°F-18.7°C 46% 2.0 mph N3.2 kmh N 5.6 mph9.0 kmh 30.14 in1020.7 mb 0.00 in0.0 mm 0.00 in0.0 mm 0.00 in0.0 mm
09:00 PM 14.9°F-9.5°C -1.6°F-18.7°C 47% 0.8 mph N1.3 kmh N 4.8 mph7.7 kmh 30.15 in1021.0 mb 0.00 in0.0 mm 0.00 in0.0 mm 0.00 in0.0 mm
09:15 PM 14.5°F-9.7°C -1.9°F-18.8°C 47% 2.0 mph N3.2 kmh N 3.9 mph6.3 kmh 30.15 in1021.0 mb 0.00 in0.0 mm 0.00 in0.0 mm 0.00 in0.0 mm
09:30 PM 14.0°F-10.0°C -2.4°F-19.1°C 47% 0.8 mph N1.3 kmh N 4.8 mph7.7 kmh 30.15 in1021.0 mb 0.00 in0.0 mm 0.00 in0.0 mm 0.00 in0.0 mm
09:45 PM 13.5°F-10.3°C -2.5°F-19.2°C 48% 2.0 mph N3.2 kmh N 6.7 mph10.8 kmh 30.14 in1020.7 mb 0.00 in0.0 mm 0.00 in0.0 mm 0.00 in0.0 mm
10:00 PM 13.1°F-10.5°C -2.8°F-19.3°C 48% 0.8 mph N1.3 kmh N 4.8 mph7.7 kmh 30.15 in1021.0 mb 0.00 in0.0 mm 0.00 in0.0 mm 0.00 in0.0 mm
10:15 PM 12.9°F-10.6°C -2.6°F-19.2°C 49% 0.8 mph N1.3 kmh N 5.6 mph9.0 kmh 30.15 in1021.0 mb 0.00 in0.0 mm 0.00 in0.0 mm 0.00 in0.0 mm
10:30 PM 12.6°F-10.8°C -2.9°F-19.4°C 49% 2.8 mph N4.5 kmh N 6.7 mph10.8 kmh 30.15 in1021.0 mb 0.00 in0.0 mm 0.00 in0.0 mm 0.00 in0.0 mm
10:45 PM 12.4°F-10.9°C -2.6°F-19.2°C 50% 0.8 mph N1.3 kmh N 7.5 mph12.1 kmh 30.16 in1021.3 mb 0.00 in0.0 mm 0.00 in0.0 mm 0.00 in0.0 mm
11:00 PM 12.0°F-11.1°C -3.0°F-19.4°C 50% Calm Calm 4.8 mph7.7 kmh 30.17 in1021.7 mb 0.00 in0.0 mm 0.00 in0.0 mm 0.00 in0.0 mm
11:15 PM 11.3°F-11.5°C -3.6°F-19.8°C 50% Calm Calm 2.8 mph4.5 kmh 30.17 in1021.7 mb 0.00 in0.0 mm 0.00 in0.0 mm 0.00 in0.0 mm
11:30 PM 10.6°F-11.9°C -4.3°F-20.2°C 50% Calm Calm 2.8 mph4.5 kmh 30.17 in1021.7 mb 0.00 in0.0 mm 0.00 in0.0 mm 0.00 in0.0 mm
11:45 PM 9.3°F-12.6°C -5.5°F-20.8°C 50% Calm Calm 2.0 mph3.2 kmh 30.17 in1021.7 mb 0.00 in0.0 mm 0.00 in0.0 mm 0.00 in0.0 mm